sensor_id;sensor_type;location;lat;lon;timestamp;P1;durP1;ratioP1;P2;durP2;ratioP2
6288;SDS011;3177;49.880;8.836;2023-01-15T00:02:03;1.77;;;1.50;;
6288;SDS011;3177;49.880;8.836;2023-01-15T00:04:31;1.73;;;1.60;;
6288;SDS011;3177;49.880;8.836;2023-01-15T00:06:58;1.57;;;1.50;;
6288;SDS011;3177;49.880;8.836;2023-01-15T00:09:25;1.60;;;1.50;;
6288;SDS011;3177;49.880;8.836;2023-01-15T00:11:53;1.70;;;1.60;;
6288;SDS011;3177;49.880;8.836;2023-01-15T00:14:20;2.60;;;1.40;;
6288;SDS011;3177;49.880;8.836;2023-01-15T00:16:49;1.50;;;1.40;;
6288;SDS011;3177;49.880;8.836;2023-01-15T00:19:16;1.40;;;1.40;;
6288;SDS011;3177;49.880;8.836;2023-01-15T00:21:45;1.80;;;1.70;;
6288;SDS011;3177;49.880;8.836;2023-01-15T00:24:12;1.10;;;1.10;;
6288;SDS011;3177;49.880;8.836;2023-01-15T00:26:57;1.43;;;1.40;;
6288;SDS011;3177;49.880;8.836;2023-01-15T00:29:41;1.20;;;1.20;;
6288;SDS011;3177;49.880;8.836;2023-01-15T00:32:08;1.20;;;1.20;;
6288;SDS011;3177;49.880;8.836;2023-01-15T00:34:35;1.53;;;1.53;;
6288;SDS011;3177;49.880;8.836;2023-01-15T00:37:04;1.63;;;1.53;;
6288;SDS011;3177;49.880;8.836;2023-01-15T00:39:31;1.23;;;1.23;;
6288;SDS011;3177;49.880;8.836;2023-01-15T00:41:59;1.30;;;1.30;;
6288;SDS011;3177;49.880;8.836;2023-01-15T00:44:26;1.60;;;1.50;;
6288;SDS011;3177;49.880;8.836;2023-01-15T00:46:53;1.53;;;1.50;;
6288;SDS011;3177;49.880;8.836;2023-01-15T00:49:20;1.70;;;1.60;;
6288;SDS011;3177;49.880;8.836;2023-01-15T00:51:47;1.40;;;1.40;;
6288;SDS011;3177;49.880;8.836;2023-01-15T00:54:16;1.80;;;1.70;;
6288;SDS011;3177;49.880;8.836;2023-01-15T00:56:43;1.50;;;1.40;;
6288;SDS011;3177;49.880;8.836;2023-01-15T00:59:11;1.40;;;1.30;;
6288;SDS011;3177;49.880;8.836;2023-01-15T01:01:38;1.70;;;1.60;;
6288;SDS011;3177;49.880;8.836;2023-01-15T01:04:05;1.20;;;1.20;;
6288;SDS011;3177;49.880;8.836;2023-01-15T01:06:32;1.20;;;1.20;;
6288;SDS011;3177;49.880;8.836;2023-01-15T01:08:59;1.50;;;1.40;;
6288;SDS011;3177;49.880;8.836;2023-01-15T01:11:28;1.40;;;1.40;;
6288;SDS011;3177;49.880;8.836;2023-01-15T01:13:58;1.13;;;1.13;;
6288;SDS011;3177;49.880;8.836;2023-01-15T01:16:27;1.30;;;1.30;;
6288;SDS011;3177;49.880;8.836;2023-01-15T01:18:56;1.20;;;1.20;;
6288;SDS011;3177;49.880;8.836;2023-01-15T01:21:23;1.23;;;1.23;;
6288;SDS011;3177;49.880;8.836;2023-01-15T01:23:50;1.20;;;1.20;;
6288;SDS011;3177;49.880;8.836;2023-01-15T01:26:18;1.40;;;1.40;;
6288;SDS011;3177;49.880;8.836;2023-01-15T01:28:48;1.30;;;1.30;;
6288;SDS011;3177;49.880;8.836;2023-01-15T01:31:16;1.27;;;1.27;;
6288;SDS011;3177;49.880;8.836;2023-01-15T01:33:43;1.27;;;1.27;;
6288;SDS011;3177;49.880;8.836;2023-01-15T01:36:10;1.20;;;1.20;;
6288;SDS011;3177;49.880;8.836;2023-01-15T01:38:37;1.10;;;1.10;;
6288;SDS011;3177;49.880;8.836;2023-01-15T01:41:04;1.23;;;1.23;;
6288;SDS011;3177;49.880;8.836;2023-01-15T01:43:49;1.27;;;1.27;;
6288;SDS011;3177;49.880;8.836;2023-01-15T01:46:18;2.27;;;1.30;;
6288;SDS011;3177;49.880;8.836;2023-01-15T01:48:45;1.13;;;1.13;;
6288;SDS011;3177;49.880;8.836;2023-01-15T01:51:13;1.10;;;1.10;;
6288;SDS011;3177;49.880;8.836;2023-01-15T01:53:40;1.10;;;1.10;;
6288;SDS011;3177;49.880;8.836;2023-01-15T01:56:07;1.13;;;1.03;;
6288;SDS011;3177;49.880;8.836;2023-01-15T01:58:35;1.03;;;1.03;;
6288;SDS011;3177;49.880;8.836;2023-01-15T02:01:02;1.30;;;1.30;;
6288;SDS011;3177;49.880;8.836;2023-01-15T02:03:32;1.30;;;1.30;;
6288;SDS011;3177;49.880;8.836;2023-01-15T02:06:01;1.27;;;1.27;;
6288;SDS011;3177;49.880;8.836;2023-01-15T02:08:29;1.30;;;1.30;;
6288;SDS011;3177;49.880;8.836;2023-01-15T02:10:56;1.20;;;1.20;;
6288;SDS011;3177;49.880;8.836;2023-01-15T02:13:25;1.20;;;1.20;;
6288;SDS011;3177;49.880;8.836;2023-01-15T02:15:55;1.30;;;1.30;;
6288;SDS011;3177;49.880;8.836;2023-01-15T02:18:26;1.10;;;1.10;;
6288;SDS011;3177;49.880;8.836;2023-01-15T02:20:57;1.40;;;1.30;;
6288;SDS011;3177;49.880;8.836;2023-01-15T02:23:30;1.40;;;1.40;;
6288;SDS011;3177;49.880;8.836;2023-01-15T02:26:12;1.30;;;1.20;;
6288;SDS011;3177;49.880;8.836;2023-01-15T02:28:47;1.30;;;1.30;;
6288;SDS011;3177;49.880;8.836;2023-01-15T02:31:16;1.53;;;1.47;;
6288;SDS011;3177;49.880;8.836;2023-01-15T02:33:44;1.67;;;1.57;;
6288;SDS011;3177;49.880;8.836;2023-01-15T02:36:14;1.10;;;1.10;;
6288;SDS011;3177;49.880;8.836;2023-01-15T02:38:42;1.40;;;1.30;;
6288;SDS011;3177;49.880;8.836;2023-01-15T02:41:11;1.20;;;1.20;;
6288;SDS011;3177;49.880;8.836;2023-01-15T02:43:43;1.00;;;1.00;;
6288;SDS011;3177;49.880;8.836;2023-01-15T02:46:12;4.00;;;1.07;;
6288;SDS011;3177;49.880;8.836;2023-01-15T02:48:40;0.93;;;0.93;;
6288;SDS011;3177;49.880;8.836;2023-01-15T02:51:09;1.60;;;1.10;;
6288;SDS011;3177;49.880;8.836;2023-01-15T02:53:38;1.10;;;1.10;;
6288;SDS011;3177;49.880;8.836;2023-01-15T02:56:06;1.03;;;1.03;;
6288;SDS011;3177;49.880;8.836;2023-01-15T02:58:36;1.20;;;1.20;;
6288;SDS011;3177;49.880;8.836;2023-01-15T03:01:05;1.30;;;1.30;;
6288;SDS011;3177;49.880;8.836;2023-01-15T03:03:36;1.17;;;1.17;;
6288;SDS011;3177;49.880;8.836;2023-01-15T03:06:07;1.30;;;1.30;;
6288;SDS011;3177;49.880;8.836;2023-01-15T03:08:34;1.33;;;1.33;;
6288;SDS011;3177;49.880;8.836;2023-01-15T03:11:02;1.20;;;1.20;;
6288;SDS011;3177;49.880;8.836;2023-01-15T03:13:37;1.20;;;1.20;;
6288;SDS011;3177;49.880;8.836;2023-01-15T03:16:08;1.20;;;1.20;;
6288;SDS011;3177;49.880;8.836;2023-01-15T03:18:58;0.90;;;0.90;;
6288;SDS011;3177;49.880;8.836;2023-01-15T03:21:29;1.10;;;1.10;;
6288;SDS011;3177;49.880;8.836;2023-01-15T03:23:57;0.93;;;0.93;;
6288;SDS011;3177;49.880;8.836;2023-01-15T03:26:27;1.13;;;1.13;;
6288;SDS011;3177;49.880;8.836;2023-01-15T03:28:54;1.00;;;1.00;;
6288;SDS011;3177;49.880;8.836;2023-01-15T03:31:21;1.00;;;1.00;;
6288;SDS011;3177;49.880;8.836;2023-01-15T03:33:48;1.20;;;1.10;;
6288;SDS011;3177;49.880;8.836;2023-01-15T03:36:17;1.10;;;1.00;;
6288;SDS011;3177;49.880;8.836;2023-01-15T03:38:44;1.00;;;1.00;;
6288;SDS011;3177;49.880;8.836;2023-01-15T03:41:16;1.43;;;1.33;;
6288;SDS011;3177;49.880;8.836;2023-01-15T03:43:48;1.00;;;1.00;;
6288;SDS011;3177;49.880;8.836;2023-01-15T03:46:22;2.67;;;1.20;;
6288;SDS011;3177;49.880;8.836;2023-01-15T03:48:50;1.50;;;1.10;;
6288;SDS011;3177;49.880;8.836;2023-01-15T03:51:23;1.77;;;1.03;;
6288;SDS011;3177;49.880;8.836;2023-01-15T03:53:52;0.80;;;0.80;;
6288;SDS011;3177;49.880;8.836;2023-01-15T03:56:22;0.80;;;0.80;;
6288;SDS011;3177;49.880;8.836;2023-01-15T03:58:52;0.90;;;0.90;;
6288;SDS011;3177;49.880;8.836;2023-01-15T04:01:20;1.00;;;1.00;;
6288;SDS011;3177;49.880;8.836;2023-01-15T04:03:49;1.07;;;1.00;;
6288;SDS011;3177;49.880;8.836;2023-01-15T04:06:17;1.10;;;1.10;;
6288;SDS011;3177;49.880;8.836;2023-01-15T04:08:46;1.03;;;0.90;;
6288;SDS011;3177;49.880;8.836;2023-01-15T04:11:20;0.83;;;0.83;;
6288;SDS011;3177;49.880;8.836;2023-01-15T04:13:48;0.90;;;0.90;;
6288;SDS011;3177;49.880;8.836;2023-01-15T04:16:15;1.00;;;1.00;;
6288;SDS011;3177;49.880;8.836;2023-01-15T04:18:45;1.00;;;1.00;;
6288;SDS011;3177;49.880;8.836;2023-01-15T04:21:12;1.00;;;1.00;;
6288;SDS011;3177;49.880;8.836;2023-01-15T04:23:39;1.13;;;1.10;;
6288;SDS011;3177;49.880;8.836;2023-01-15T04:26:07;1.07;;;1.07;;
6288;SDS011;3177;49.880;8.836;2023-01-15T04:28:34;1.03;;;1.03;;
6288;SDS011;3177;49.880;8.836;2023-01-15T04:31:01;1.23;;;1.23;;
6288;SDS011;3177;49.880;8.836;2023-01-15T04:33:28;1.00;;;1.00;;
6288;SDS011;3177;49.880;8.836;2023-01-15T04:35:57;1.20;;;1.10;;
6288;SDS011;3177;49.880;8.836;2023-01-15T04:38:24;1.10;;;1.10;;
6288;SDS011;3177;49.880;8.836;2023-01-15T04:40:51;1.10;;;1.10;;
6288;SDS011;3177;49.880;8.836;2023-01-15T04:43:37;1.20;;;1.20;;
6288;SDS011;3177;49.880;8.836;2023-01-15T04:46:22;1.10;;;1.10;;
6288;SDS011;3177;49.880;8.836;2023-01-15T04:48:49;1.10;;;1.10;;
6288;SDS011;3177;49.880;8.836;2023-01-15T04:51:16;0.93;;;0.93;;
6288;SDS011;3177;49.880;8.836;2023-01-15T04:53:43;1.10;;;1.10;;
6288;SDS011;3177;49.880;8.836;2023-01-15T04:56:10;1.00;;;1.00;;
6288;SDS011;3177;49.880;8.836;2023-01-15T04:58:39;1.00;;;1.00;;
6288;SDS011;3177;49.880;8.836;2023-01-15T05:01:09;1.00;;;1.00;;
6288;SDS011;3177;49.880;8.836;2023-01-15T05:03:36;1.17;;;1.17;;
6288;SDS011;3177;49.880;8.836;2023-01-15T05:06:03;1.00;;;1.00;;
6288;SDS011;3177;49.880;8.836;2023-01-15T05:08:30;1.17;;;1.03;;
6288;SDS011;3177;49.880;8.836;2023-01-15T05:11:00;1.10;;;1.10;;
6288;SDS011;3177;49.880;8.836;2023-01-15T05:13:27;1.20;;;1.10;;
6288;SDS011;3177;49.880;8.836;2023-01-15T05:15:58;1.30;;;1.20;;
6288;SDS011;3177;49.880;8.836;2023-01-15T05:18:32;1.10;;;1.10;;
6288;SDS011;3177;49.880;8.836;2023-01-15T05:20:59;1.20;;;1.20;;
6288;SDS011;3177;49.880;8.836;2023-01-15T05:23:26;1.17;;;1.10;;
6288;SDS011;3177;49.880;8.836;2023-01-15T05:25:53;1.30;;;1.20;;
6288;SDS011;3177;49.880;8.836;2023-01-15T05:28:20;1.10;;;1.10;;
6288;SDS011;3177;49.880;8.836;2023-01-15T05:30:47;1.13;;;1.13;;
6288;SDS011;3177;49.880;8.836;2023-01-15T05:33:15;1.10;;;1.10;;
6288;SDS011;3177;49.880;8.836;2023-01-15T05:35:43;1.30;;;1.30;;
6288;SDS011;3177;49.880;8.836;2023-01-15T05:38:10;1.30;;;1.30;;
6288;SDS011;3177;49.880;8.836;2023-01-15T05:40:37;1.70;;;1.30;;
6288;SDS011;3177;49.880;8.836;2023-01-15T05:43:04;1.60;;;1.50;;
6288;SDS011;3177;49.880;8.836;2023-01-15T05:45:32;1.40;;;1.30;;
6288;SDS011;3177;49.880;8.836;2023-01-15T05:48:00;1.10;;;1.10;;
6288;SDS011;3177;49.880;8.836;2023-01-15T05:50:29;1.43;;;1.43;;
6288;SDS011;3177;49.880;8.836;2023-01-15T05:52:56;1.27;;;1.27;;
6288;SDS011;3177;49.880;8.836;2023-01-15T05:55:23;1.50;;;1.30;;
6288;SDS011;3177;49.880;8.836;2023-01-15T05:57:50;1.20;;;1.20;;
6288;SDS011;3177;49.880;8.836;2023-01-15T06:00:17;1.20;;;1.20;;
6288;SDS011;3177;49.880;8.836;2023-01-15T06:02:47;1.10;;;1.10;;
6288;SDS011;3177;49.880;8.836;2023-01-15T06:05:14;1.20;;;1.20;;
6288;SDS011;3177;49.880;8.836;2023-01-15T06:07:46;1.00;;;1.00;;
6288;SDS011;3177;49.880;8.836;2023-01-15T06:10:14;1.20;;;1.20;;
6288;SDS011;3177;49.880;8.836;2023-01-15T06:12:41;1.10;;;1.10;;
6288;SDS011;3177;49.880;8.836;2023-01-15T06:15:08;1.23;;;1.23;;
6288;SDS011;3177;49.880;8.836;2023-01-15T06:17:36;1.80;;;1.30;;
6288;SDS011;3177;49.880;8.836;2023-01-15T06:20:03;1.17;;;1.17;;
6288;SDS011;3177;49.880;8.836;2023-01-15T06:22:30;1.10;;;1.10;;
6288;SDS011;3177;49.880;8.836;2023-01-15T06:24:58;1.20;;;1.20;;
6288;SDS011;3177;49.880;8.836;2023-01-15T06:27:26;1.10;;;1.10;;
6288;SDS011;3177;49.880;8.836;2023-01-15T06:29:53;1.60;;;1.50;;
6288;SDS011;3177;49.880;8.836;2023-01-15T06:32:22;1.10;;;1.10;;
6288;SDS011;3177;49.880;8.836;2023-01-15T06:34:49;3.60;;;1.20;;
6288;SDS011;3177;49.880;8.836;2023-01-15T06:37:16;1.60;;;1.20;;
6288;SDS011;3177;49.880;8.836;2023-01-15T06:39:44;1.20;;;1.20;;
6288;SDS011;3177;49.880;8.836;2023-01-15T06:42:12;1.90;;;1.20;;
6288;SDS011;3177;49.880;8.836;2023-01-15T06:44:56;1.30;;;1.20;;
6288;SDS011;3177;49.880;8.836;2023-01-15T06:47:41;1.17;;;1.17;;
6288;SDS011;3177;49.880;8.836;2023-01-15T06:50:09;2.20;;;1.33;;
6288;SDS011;3177;49.880;8.836;2023-01-15T06:52:36;1.20;;;1.20;;
6288;SDS011;3177;49.880;8.836;2023-01-15T06:55:04;1.20;;;1.20;;
6288;SDS011;3177;49.880;8.836;2023-01-15T06:57:32;1.17;;;1.17;;
6288;SDS011;3177;49.880;8.836;2023-01-15T06:59:59;1.10;;;1.10;;
6288;SDS011;3177;49.880;8.836;2023-01-15T07:02:26;1.57;;;1.20;;
6288;SDS011;3177;49.880;8.836;2023-01-15T07:04:53;1.53;;;1.20;;
6288;SDS011;3177;49.880;8.836;2023-01-15T07:07:20;1.30;;;1.30;;
6288;SDS011;3177;49.880;8.836;2023-01-15T07:09:47;1.50;;;1.40;;
6288;SDS011;3177;49.880;8.836;2023-01-15T07:12:15;1.70;;;1.60;;
6288;SDS011;3177;49.880;8.836;2023-01-15T07:14:43;1.77;;;1.67;;
6288;SDS011;3177;49.880;8.836;2023-01-15T07:17:10;1.77;;;1.67;;
6288;SDS011;3177;49.880;8.836;2023-01-15T07:19:38;1.50;;;1.50;;
6288;SDS011;3177;49.880;8.836;2023-01-15T07:22:05;1.97;;;1.87;;
6288;SDS011;3177;49.880;8.836;2023-01-15T07:24:32;1.60;;;1.60;;
6288;SDS011;3177;49.880;8.836;2023-01-15T07:26:59;2.00;;;1.90;;
6288;SDS011;3177;49.880;8.836;2023-01-15T07:29:27;1.60;;;1.60;;
6288;SDS011;3177;49.880;8.836;2023-01-15T07:31:55;2.70;;;2.13;;
6288;SDS011;3177;49.880;8.836;2023-01-15T07:34:22;5.10;;;3.37;;
6288;SDS011;3177;49.880;8.836;2023-01-15T07:36:49;2.37;;;2.17;;
6288;SDS011;3177;49.880;8.836;2023-01-15T07:39:16;2.03;;;1.93;;
6288;SDS011;3177;49.880;8.836;2023-01-15T07:41:43;1.60;;;1.60;;
6288;SDS011;3177;49.880;8.836;2023-01-15T07:44:28;1.80;;;1.70;;
6288;SDS011;3177;49.880;8.836;2023-01-15T07:47:16;1.53;;;1.53;;
6288;SDS011;3177;49.880;8.836;2023-01-15T07:50:01;2.40;;;2.20;;
6288;SDS011;3177;49.880;8.836;2023-01-15T07:52:28;3.13;;;2.70;;
6288;SDS011;3177;49.880;8.836;2023-01-15T07:54:55;2.20;;;2.00;;
6288;SDS011;3177;49.880;8.836;2023-01-15T07:57:22;2.83;;;2.03;;
6288;SDS011;3177;49.880;8.836;2023-01-15T07:59:49;2.40;;;2.17;;
6288;SDS011;3177;49.880;8.836;2023-01-15T08:02:18;2.17;;;1.97;;
6288;SDS011;3177;49.880;8.836;2023-01-15T08:04:45;2.23;;;2.10;;
6288;SDS011;3177;49.880;8.836;2023-01-15T08:07:13;2.67;;;2.20;;
6288;SDS011;3177;49.880;8.836;2023-01-15T08:09:40;2.30;;;2.10;;
6288;SDS011;3177;49.880;8.836;2023-01-15T08:12:09;1.90;;;1.80;;
6288;SDS011;3177;49.880;8.836;2023-01-15T08:14:53;1.60;;;1.60;;
6288;SDS011;3177;49.880;8.836;2023-01-15T08:17:41;1.70;;;1.63;;
6288;SDS011;3177;49.880;8.836;2023-01-15T08:20:09;2.00;;;1.90;;
6288;SDS011;3177;49.880;8.836;2023-01-15T08:22:37;1.60;;;1.60;;
6288;SDS011;3177;49.880;8.836;2023-01-15T08:25:04;1.60;;;1.60;;
6288;SDS011;3177;49.880;8.836;2023-01-15T08:27:32;1.60;;;1.60;;
6288;SDS011;3177;49.880;8.836;2023-01-15T08:29:59;1.83;;;1.60;;
6288;SDS011;3177;49.880;8.836;2023-01-15T08:32:26;1.50;;;1.50;;
6288;SDS011;3177;49.880;8.836;2023-01-15T08:34:54;2.00;;;1.80;;
6288;SDS011;3177;49.880;8.836;2023-01-15T08:37:21;1.47;;;1.40;;
6288;SDS011;3177;49.880;8.836;2023-01-15T08:39:51;1.67;;;1.60;;
6288;SDS011;3177;49.880;8.836;2023-01-15T08:42:18;1.80;;;1.70;;
6288;SDS011;3177;49.880;8.836;2023-01-15T08:44:45;1.90;;;1.80;;
6288;SDS011;3177;49.880;8.836;2023-01-15T08:47:12;2.10;;;2.00;;
6288;SDS011;3177;49.880;8.836;2023-01-15T08:49:39;2.10;;;2.00;;
6288;SDS011;3177;49.880;8.836;2023-01-15T08:52:08;1.67;;;1.57;;
6288;SDS011;3177;49.880;8.836;2023-01-15T08:54:35;1.97;;;1.70;;
6288;SDS011;3177;49.880;8.836;2023-01-15T08:57:02;1.50;;;1.50;;
6288;SDS011;3177;49.880;8.836;2023-01-15T08:59:29;1.80;;;1.70;;
6288;SDS011;3177;49.880;8.836;2023-01-15T09:01:56;1.70;;;1.70;;
6288;SDS011;3177;49.880;8.836;2023-01-15T09:04:23;1.90;;;1.70;;
6288;SDS011;3177;49.880;8.836;2023-01-15T09:06:50;1.87;;;1.80;;
6288;SDS011;3177;49.880;8.836;2023-01-15T09:09:19;1.80;;;1.70;;
6288;SDS011;3177;49.880;8.836;2023-01-15T09:11:46;1.43;;;1.43;;
6288;SDS011;3177;49.880;8.836;2023-01-15T09:14:13;1.33;;;1.33;;
6288;SDS011;3177;49.880;8.836;2023-01-15T09:16:41;1.50;;;1.50;;
6288;SDS011;3177;49.880;8.836;2023-01-15T09:19:08;1.20;;;1.20;;
6288;SDS011;3177;49.880;8.836;2023-01-15T09:21:36;1.50;;;1.50;;
6288;SDS011;3177;49.880;8.836;2023-01-15T09:24:03;1.63;;;1.63;;
6288;SDS011;3177;49.880;8.836;2023-01-15T09:26:32;1.90;;;1.80;;
6288;SDS011;3177;49.880;8.836;2023-01-15T09:29:00;1.80;;;1.70;;
6288;SDS011;3177;49.880;8.836;2023-01-15T09:31:27;1.50;;;1.50;;
6288;SDS011;3177;49.880;8.836;2023-01-15T09:33:55;1.60;;;1.60;;
6288;SDS011;3177;49.880;8.836;2023-01-15T09:36:23;2.10;;;1.97;;
6288;SDS011;3177;49.880;8.836;2023-01-15T09:38:51;3.33;;;2.40;;
6288;SDS011;3177;49.880;8.836;2023-01-15T09:41:18;1.67;;;1.67;;
6288;SDS011;3177;49.880;8.836;2023-01-15T09:44:10;1.70;;;1.70;;
6288;SDS011;3177;49.880;8.836;2023-01-15T09:46:42;2.10;;;2.00;;
6288;SDS011;3177;49.880;8.836;2023-01-15T09:49:17;2.00;;;1.90;;
6288;SDS011;3177;49.880;8.836;2023-01-15T09:51:50;1.97;;;1.87;;
6288;SDS011;3177;49.880;8.836;2023-01-15T09:54:22;2.10;;;2.00;;
6288;SDS011;3177;49.880;8.836;2023-01-15T09:56:52;1.83;;;1.73;;
6288;SDS011;3177;49.880;8.836;2023-01-15T09:59:25;1.90;;;1.80;;
6288;SDS011;3177;49.880;8.836;2023-01-15T10:01:56;1.70;;;1.60;;
6288;SDS011;3177;49.880;8.836;2023-01-15T10:04:28;2.40;;;1.90;;
6288;SDS011;3177;49.880;8.836;2023-01-15T10:06:59;1.77;;;1.67;;
6288;SDS011;3177;49.880;8.836;2023-01-15T10:09:30;1.90;;;1.80;;
6288;SDS011;3177;49.880;8.836;2023-01-15T10:12:02;1.73;;;1.63;;
6288;SDS011;3177;49.880;8.836;2023-01-15T10:14:51;1.90;;;1.80;;
6288;SDS011;3177;49.880;8.836;2023-01-15T10:17:21;1.80;;;1.70;;
6288;SDS011;3177;49.880;8.836;2023-01-15T10:19:51;1.93;;;1.83;;
6288;SDS011;3177;49.880;8.836;2023-01-15T10:22:22;1.73;;;1.67;;
6288;SDS011;3177;49.880;8.836;2023-01-15T10:24:53;1.60;;;1.60;;
6288;SDS011;3177;49.880;8.836;2023-01-15T10:27:22;1.97;;;1.87;;
6288;SDS011;3177;49.880;8.836;2023-01-15T10:29:52;1.63;;;1.60;;
6288;SDS011;3177;49.880;8.836;2023-01-15T10:32:21;1.97;;;1.80;;
6288;SDS011;3177;49.880;8.836;2023-01-15T10:35:04;1.90;;;1.80;;
6288;SDS011;3177;49.880;8.836;2023-01-15T10:37:35;1.77;;;1.70;;
6288;SDS011;3177;49.880;8.836;2023-01-15T10:40:16;2.13;;;2.03;;
6288;SDS011;3177;49.880;8.836;2023-01-15T10:42:47;1.60;;;1.60;;
6288;SDS011;3177;49.880;8.836;2023-01-15T10:45:19;1.57;;;1.50;;
6288;SDS011;3177;49.880;8.836;2023-01-15T10:47:49;1.67;;;1.60;;
6288;SDS011;3177;49.880;8.836;2023-01-15T10:50:19;1.70;;;1.67;;
6288;SDS011;3177;49.880;8.836;2023-01-15T10:52:47;3.17;;;2.23;;
6288;SDS011;3177;49.880;8.836;2023-01-15T10:55:17;2.57;;;1.83;;
6288;SDS011;3177;49.880;8.836;2023-01-15T10:57:46;2.57;;;2.03;;
6288;SDS011;3177;49.880;8.836;2023-01-15T11:00:15;2.00;;;1.90;;
6288;SDS011;3177;49.880;8.836;2023-01-15T11:02:48;1.70;;;1.60;;
6288;SDS011;3177;49.880;8.836;2023-01-15T11:05:16;5.17;;;1.80;;
6288;SDS011;3177;49.880;8.836;2023-01-15T11:07:45;2.63;;;1.60;;
6288;SDS011;3177;49.880;8.836;2023-01-15T11:10:14;1.87;;;1.70;;
6288;SDS011;3177;49.880;8.836;2023-01-15T11:12:44;3.23;;;1.80;;
6288;SDS011;3177;49.880;8.836;2023-01-15T11:15:32;1.60;;;1.60;;
6288;SDS011;3177;49.880;8.836;2023-01-15T11:18:20;2.17;;;1.70;;
6288;SDS011;3177;49.880;8.836;2023-01-15T11:21:09;1.70;;;1.60;;
6288;SDS011;3177;49.880;8.836;2023-01-15T11:23:37;2.57;;;2.00;;
6288;SDS011;3177;49.880;8.836;2023-01-15T11:26:04;2.03;;;1.80;;
6288;SDS011;3177;49.880;8.836;2023-01-15T11:28:31;4.63;;;3.03;;
6288;SDS011;3177;49.880;8.836;2023-01-15T11:31:00;2.20;;;1.80;;
6288;SDS011;3177;49.880;8.836;2023-01-15T11:33:29;2.30;;;2.10;;
6288;SDS011;3177;49.880;8.836;2023-01-15T11:35:57;2.57;;;2.10;;
6288;SDS011;3177;49.880;8.836;2023-01-15T11:38:29;4.57;;;2.10;;
6288;SDS011;3177;49.880;8.836;2023-01-15T11:40:57;1.60;;;1.60;;
6288;SDS011;3177;49.880;8.836;2023-01-15T11:43:25;1.50;;;1.50;;
6288;SDS011;3177;49.880;8.836;2023-01-15T11:46:24;1.63;;;1.53;;
6288;SDS011;3177;49.880;8.836;2023-01-15T11:49:08;1.93;;;1.83;;
6288;SDS011;3177;49.880;8.836;2023-01-15T11:51:53;2.00;;;1.90;;
6288;SDS011;3177;49.880;8.836;2023-01-15T11:54:22;1.97;;;1.77;;
6288;SDS011;3177;49.880;8.836;2023-01-15T11:56:49;1.70;;;1.60;;
6288;SDS011;3177;49.880;8.836;2023-01-15T11:59:17;1.83;;;1.70;;
6288;SDS011;3177;49.880;8.836;2023-01-15T12:01:46;2.80;;;1.90;;
6288;SDS011;3177;49.880;8.836;2023-01-15T12:04:26;2.27;;;2.10;;
6288;SDS011;3177;49.880;8.836;2023-01-15T12:06:53;2.10;;;1.90;;
6288;SDS011;3177;49.880;8.836;2023-01-15T12:09:22;1.70;;;1.60;;
6288;SDS011;3177;49.880;8.836;2023-01-15T12:11:56;1.80;;;1.70;;
6288;SDS011;3177;49.880;8.836;2023-01-15T12:14:32;3.13;;;2.07;;
6288;SDS011;3177;49.880;8.836;2023-01-15T12:17:05;2.27;;;1.70;;
6288;SDS011;3177;49.880;8.836;2023-01-15T12:19:38;1.70;;;1.63;;
6288;SDS011;3177;49.880;8.836;2023-01-15T12:22:12;1.90;;;1.80;;
6288;SDS011;3177;49.880;8.836;2023-01-15T12:27:34;2.10;;;1.60;;
6288;SDS011;3177;49.880;8.836;2023-01-15T12:30:05;1.70;;;1.60;;
6288;SDS011;3177;49.880;8.836;2023-01-15T12:32:40;2.33;;;2.23;;
6288;SDS011;3177;49.880;8.836;2023-01-15T12:35:12;2.63;;;1.80;;
6288;SDS011;3177;49.880;8.836;2023-01-15T12:37:42;1.63;;;1.53;;
6288;SDS011;3177;49.880;8.836;2023-01-15T12:40:16;2.73;;;1.80;;
6288;SDS011;3177;49.880;8.836;2023-01-15T12:42:44;2.50;;;1.70;;
6288;SDS011;3177;49.880;8.836;2023-01-15T12:45:31;2.30;;;2.10;;
6288;SDS011;3177;49.880;8.836;2023-01-15T12:48:01;1.70;;;1.60;;
6288;SDS011;3177;49.880;8.836;2023-01-15T12:50:34;2.57;;;1.70;;
6288;SDS011;3177;49.880;8.836;2023-01-15T12:53:09;1.90;;;1.70;;
6288;SDS011;3177;49.880;8.836;2023-01-15T12:55:38;5.33;;;2.47;;
6288;SDS011;3177;49.880;8.836;2023-01-15T12:58:09;3.57;;;2.37;;
6288;SDS011;3177;49.880;8.836;2023-01-15T13:00:39;1.97;;;1.83;;
6288;SDS011;3177;49.880;8.836;2023-01-15T13:03:14;2.30;;;2.10;;
6288;SDS011;3177;49.880;8.836;2023-01-15T13:05:46;3.37;;;1.90;;
6288;SDS011;3177;49.880;8.836;2023-01-15T13:08:16;2.67;;;2.30;;
6288;SDS011;3177;49.880;8.836;2023-01-15T13:10:45;1.80;;;1.70;;
6288;SDS011;3177;49.880;8.836;2023-01-15T13:13:15;2.50;;;2.17;;
6288;SDS011;3177;49.880;8.836;2023-01-15T13:15:46;3.03;;;2.67;;
6288;SDS011;3177;49.880;8.836;2023-01-15T13:18:15;3.90;;;2.43;;
6288;SDS011;3177;49.880;8.836;2023-01-15T13:20:50;3.03;;;2.10;;
6288;SDS011;3177;49.880;8.836;2023-01-15T13:23:23;4.00;;;3.00;;
6288;SDS011;3177;49.880;8.836;2023-01-15T13:26:02;3.50;;;2.20;;
6288;SDS011;3177;49.880;8.836;2023-01-15T13:28:42;2.60;;;2.40;;
6288;SDS011;3177;49.880;8.836;2023-01-15T13:31:15;2.10;;;1.90;;
6288;SDS011;3177;49.880;8.836;2023-01-15T13:33:46;2.20;;;2.00;;
6288;SDS011;3177;49.880;8.836;2023-01-15T13:36:16;2.50;;;2.03;;
6288;SDS011;3177;49.880;8.836;2023-01-15T13:38:45;2.27;;;1.60;;
6288;SDS011;3177;49.880;8.836;2023-01-15T13:41:15;1.80;;;1.70;;
6288;SDS011;3177;49.880;8.836;2023-01-15T13:44:04;3.57;;;1.97;;
6288;SDS011;3177;49.880;8.836;2023-01-15T13:46:31;3.70;;;2.00;;
6288;SDS011;3177;49.880;8.836;2023-01-15T13:48:58;3.53;;;1.90;;
6288;SDS011;3177;49.880;8.836;2023-01-15T13:51:27;2.43;;;2.23;;
6288;SDS011;3177;49.880;8.836;2023-01-15T13:53:55;1.90;;;1.80;;
6288;SDS011;3177;49.880;8.836;2023-01-15T13:56:27;2.23;;;1.97;;
6288;SDS011;3177;49.880;8.836;2023-01-15T13:58:55;3.53;;;1.80;;
6288;SDS011;3177;49.880;8.836;2023-01-15T14:01:23;1.97;;;1.70;;
6288;SDS011;3177;49.880;8.836;2023-01-15T14:03:56;1.93;;;1.70;;
6288;SDS011;3177;49.880;8.836;2023-01-15T14:06:35;1.50;;;1.50;;
6288;SDS011;3177;49.880;8.836;2023-01-15T14:09:02;1.90;;;1.80;;
6288;SDS011;3177;49.880;8.836;2023-01-15T14:11:31;1.70;;;1.60;;
6288;SDS011;3177;49.880;8.836;2023-01-15T14:14:09;2.00;;;1.80;;
6288;SDS011;3177;49.880;8.836;2023-01-15T14:16:42;1.53;;;1.50;;
6288;SDS011;3177;49.880;8.836;2023-01-15T14:22:01;2.03;;;1.83;;
6288;SDS011;3177;49.880;8.836;2023-01-15T14:24:51;4.33;;;1.80;;
6288;SDS011;3177;49.880;8.836;2023-01-15T14:27:32;3.07;;;2.73;;
6288;SDS011;3177;49.880;8.836;2023-01-15T14:33:01;3.33;;;2.90;;
6288;SDS011;3177;49.880;8.836;2023-01-15T14:35:35;5.47;;;3.27;;
6288;SDS011;3177;49.880;8.836;2023-01-15T14:38:04;5.13;;;3.40;;
6288;SDS011;3177;49.880;8.836;2023-01-15T14:40:32;5.13;;;2.63;;
6288;SDS011;3177;49.880;8.836;2023-01-15T14:43:00;6.57;;;2.33;;
6288;SDS011;3177;49.880;8.836;2023-01-15T14:45:29;3.53;;;2.17;;
6288;SDS011;3177;49.880;8.836;2023-01-15T14:47:57;4.97;;;2.00;;
6288;SDS011;3177;49.880;8.836;2023-01-15T14:50:32;2.03;;;1.70;;
6288;SDS011;3177;49.880;8.836;2023-01-15T14:53:16;2.27;;;2.07;;
6288;SDS011;3177;49.880;8.836;2023-01-15T14:55:45;5.30;;;2.20;;
6288;SDS011;3177;49.880;8.836;2023-01-15T14:58:13;2.33;;;1.80;;
6288;SDS011;3177;49.880;8.836;2023-01-15T15:00:43;2.13;;;1.97;;
6288;SDS011;3177;49.880;8.836;2023-01-15T15:03:13;3.93;;;2.57;;
6288;SDS011;3177;49.880;8.836;2023-01-15T15:05:42;7.03;;;2.70;;
6288;SDS011;3177;49.880;8.836;2023-01-15T15:08:11;3.30;;;2.33;;
6288;SDS011;3177;49.880;8.836;2023-01-15T15:10:40;1.87;;;1.77;;
6288;SDS011;3177;49.880;8.836;2023-01-15T15:13:11;7.00;;;2.37;;
6288;SDS011;3177;49.880;8.836;2023-01-15T15:15:41;6.47;;;2.23;;
6288;SDS011;3177;49.880;8.836;2023-01-15T15:18:13;2.10;;;1.90;;
6288;SDS011;3177;49.880;8.836;2023-01-15T15:20:43;3.77;;;2.00;;
6288;SDS011;3177;49.880;8.836;2023-01-15T15:23:14;6.07;;;2.50;;
6288;SDS011;3177;49.880;8.836;2023-01-15T15:25:45;5.50;;;2.10;;
6288;SDS011;3177;49.880;8.836;2023-01-15T15:28:17;2.73;;;1.93;;
6288;SDS011;3177;49.880;8.836;2023-01-15T15:30:44;5.57;;;2.27;;
6288;SDS011;3177;49.880;8.836;2023-01-15T15:33:14;3.67;;;1.67;;
6288;SDS011;3177;49.880;8.836;2023-01-15T15:35:43;1.97;;;1.87;;
6288;SDS011;3177;49.880;8.836;2023-01-15T15:38:14;3.43;;;2.23;;
6288;SDS011;3177;49.880;8.836;2023-01-15T15:40:43;3.60;;;1.93;;
6288;SDS011;3177;49.880;8.836;2023-01-15T15:43:12;2.03;;;1.80;;